sensor_id;sensor_type;location;lat;lon;timestamp;pressure;altitude;pressure_sealevel;temperature;humidity
84190;BME280;74321;53.406;8.146;2024-03-06T08:20:17;102522.81;;;3.88;100.00
84190;BME280;74321;53.406;8.146;2024-03-06T08:25:19;102517.69;;;3.70;100.00
84190;BME280;74321;53.406;8.146;2024-03-06T08:30:21;102530.53;;;3.73;100.00
84190;BME280;74321;53.406;8.146;2024-03-06T08:35:24;102549.53;;;3.98;100.00
84190;BME280;74321;53.406;8.146;2024-03-06T08:40:26;102554.66;;;4.15;100.00
84190;BME280;74321;53.406;8.146;2024-03-06T08:45:29;102551.00;;;4.10;100.00
84190;BME280;74321;53.406;8.146;2024-03-06T08:50:31;102549.97;;;4.23;100.00
84190;BME280;74321;53.406;8.146;2024-03-06T08:55:33;102566.69;;;4.19;100.00
84190;BME280;74321;53.406;8.146;2024-03-06T09:00:36;102566.00;;;4.56;100.00
84190;BME280;74321;53.406;8.146;2024-03-06T09:05:39;102564.97;;;4.70;100.00
84190;BME280;74321;53.406;8.146;2024-03-06T09:10:41;102557.78;;;4.79;100.00
84190;BME280;74321;53.406;8.146;2024-03-06T09:15:43;102564.41;;;4.76;100.00
84190;BME280;74321;53.406;8.146;2024-03-06T09:20:46;102535.38;;;5.06;100.00
84190;BME280;74321;53.406;8.146;2024-03-06T09:25:48;102572.56;;;5.42;100.00
84190;BME280;74321;53.406;8.146;2024-03-06T09:30:51;102574.88;;;5.37;100.00
84190;BME280;74321;53.406;8.146;2024-03-06T09:35:53;102574.19;;;5.59;100.00
84190;BME280;74321;53.406;8.146;2024-03-06T09:40:56;102576.31;;;6.06;100.00
84190;BME280;74321;53.406;8.146;2024-03-06T09:45:58;102572.44;;;6.35;100.00
84190;BME280;74321;53.406;8.146;2024-03-06T09:51:03;102581.47;;;6.48;100.00
84190;BME280;74321;53.406;8.146;2024-03-06T09:56:05;102576.16;;;6.85;100.00
84190;BME280;74321;53.406;8.146;2024-03-06T10:01:08;102571.56;;;7.42;100.00
84190;BME280;74321;53.406;8.146;2024-03-06T10:06:10;102582.88;;;7.26;100.00
84190;BME280;74321;53.406;8.146;2024-03-06T10:11:14;102586.00;;;7.19;100.00
84190;BME280;74321;53.406;8.146;2024-03-06T10:16:16;102595.41;;;7.20;100.00
84190;BME280;74321;53.406;8.146;2024-03-06T10:21:29;102604.09;;;7.48;100.00
84190;BME280;74321;53.406;8.146;2024-03-06T10:26:33;102613.53;;;7.73;100.00
84190;BME280;74321;53.406;8.146;2024-03-06T10:31:35;102611.00;;;7.50;100.00
84190;BME280;74321;53.406;8.146;2024-03-06T10:36:38;102585.53;;;7.98;100.00
84190;BME280;74321;53.406;8.146;2024-03-06T10:41:44;102589.91;;;9.04;100.00
84190;BME280;74321;53.406;8.146;2024-03-06T10:46:47;102599.13;;;10.18;100.00
84190;BME280;74321;53.406;8.146;2024-03-06T10:52:00;102611.78;;;9.80;100.00
84190;BME280;74321;53.406;8.146;2024-03-06T10:57:03;102605.13;;;9.85;100.00
84190;BME280;74321;53.406;8.146;2024-03-06T11:02:06;102597.13;;;11.46;100.00
84190;BME280;74321;53.406;8.146;2024-03-06T11:07:10;102607.13;;;10.27;100.00
84190;BME280;74321;53.406;8.146;2024-03-06T11:12:36;102619.88;;;11.70;100.00
84190;BME280;74321;53.406;8.146;2024-03-06T11:17:40;102618.69;;;11.95;100.00
84190;BME280;74321;53.406;8.146;2024-03-06T11:28:09;102614.97;;;13.30;100.00
84190;BME280;74321;53.406;8.146;2024-03-06T11:33:15;102604.94;;;12.40;100.00
84190;BME280;74321;53.406;8.146;2024-03-06T11:38:20;102605.22;;;13.73;92.06
84190;BME280;74321;53.406;8.146;2024-03-06T11:43:26;102608.38;;;13.49;94.31
84190;BME280;74321;53.406;8.146;2024-03-06T11:48:29;102609.38;;;13.62;94.39
84190;BME280;74321;53.406;8.146;2024-03-06T11:53:33;102622.44;;;13.74;99.37
84190;BME280;74321;53.406;8.146;2024-03-06T11:58:41;102620.00;;;13.89;92.82
84190;BME280;74321;53.406;8.146;2024-03-06T12:03:43;102612.88;;;13.65;98.79
84190;BME280;74321;53.406;8.146;2024-03-06T12:08:45;102621.03;;;14.03;93.06
84190;BME280;74321;53.406;8.146;2024-03-06T12:13:48;102634.84;;;12.84;85.20
84190;BME280;74321;53.406;8.146;2024-03-06T12:18:54;102620.25;;;14.11;86.17
84190;BME280;74321;53.406;8.146;2024-03-06T12:24:06;102626.47;;;14.31;85.94
84190;BME280;74321;53.406;8.146;2024-03-06T12:29:16;102648.56;;;11.90;100.00
84190;BME280;74321;53.406;8.146;2024-03-06T12:34:18;102629.75;;;12.87;96.54
84190;BME280;74321;53.406;8.146;2024-03-06T12:39:20;102642.28;;;12.19;100.00
84190;BME280;74321;53.406;8.146;2024-03-06T12:44:25;102631.91;;;11.72;99.83
84190;BME280;74321;53.406;8.146;2024-03-06T12:49:28;102624.75;;;12.97;94.56
84190;BME280;74321;53.406;8.146;2024-03-06T12:54:30;102637.69;;;13.59;91.16
84190;BME280;74321;53.406;8.146;2024-03-06T12:59:33;102632.31;;;15.10;74.21
84190;BME280;74321;53.406;8.146;2024-03-06T13:04:35;102626.38;;;15.27;75.23
84190;BME280;74321;53.406;8.146;2024-03-06T13:09:37;102621.97;;;15.09;73.99
84190;BME280;74321;53.406;8.146;2024-03-06T13:14:39;102628.56;;;16.79;58.10
84190;BME280;74321;53.406;8.146;2024-03-06T13:19:41;102637.06;;;15.94;65.48
84190;BME280;74321;53.406;8.146;2024-03-06T13:24:43;102625.09;;;16.42;62.89
84190;BME280;74321;53.406;8.146;2024-03-06T13:29:51;102626.00;;;16.82;59.39
84190;BME280;74321;53.406;8.146;2024-03-06T13:34:53;102625.94;;;16.44;57.10
84190;BME280;74321;53.406;8.146;2024-03-06T13:39:56;102633.56;;;17.74;58.51
84190;BME280;74321;53.406;8.146;2024-03-06T13:45:06;102597.72;;;14.87;60.55
84190;BME280;74321;53.406;8.146;2024-03-06T13:50:15;102611.38;;;14.71;70.47
84190;BME280;74321;53.406;8.146;2024-03-06T13:55:17;102644.50;;;12.01;97.44
84190;BME280;74321;53.406;8.146;2024-03-06T14:00:19;102639.19;;;15.10;77.70
84190;BME280;74321;53.406;8.146;2024-03-06T14:05:21;102646.22;;;14.30;79.45
84190;BME280;74321;53.406;8.146;2024-03-06T14:10:27;102657.66;;;12.64;88.16
84190;BME280;74321;53.406;8.146;2024-03-06T14:15:29;102619.50;;;12.90;86.01
84190;BME280;74321;53.406;8.146;2024-03-06T14:20:32;102648.25;;;11.37;95.57
84190;BME280;74321;53.406;8.146;2024-03-06T14:25:35;102614.53;;;13.62;90.44
84190;BME280;74321;53.406;8.146;2024-03-06T14:30:42;102651.13;;;13.39;86.47
84190;BME280;74321;53.406;8.146;2024-03-06T14:35:45;102655.94;;;12.63;96.70
84190;BME280;74321;53.406;8.146;2024-03-06T14:40:47;102661.78;;;10.93;100.00
84190;BME280;74321;53.406;8.146;2024-03-06T14:45:50;102660.00;;;11.25;100.00
84190;BME280;74321;53.406;8.146;2024-03-06T14:50:52;102661.94;;;10.66;100.00
84190;BME280;74321;53.406;8.146;2024-03-06T14:55:55;102666.25;;;10.04;100.00
84190;BME280;74321;53.406;8.146;2024-03-06T15:00:58;102668.84;;;9.47;100.00
84190;BME280;74321;53.406;8.146;2024-03-06T15:06:00;102659.47;;;9.48;100.00
84190;BME280;74321;53.406;8.146;2024-03-06T15:11:02;102679.75;;;9.69;100.00
84190;BME280;74321;53.406;8.146;2024-03-06T15:16:04;102681.41;;;9.40;100.00
84190;BME280;74321;53.406;8.146;2024-03-06T15:21:07;102687.97;;;9.32;100.00
84190;BME280;74321;53.406;8.146;2024-03-06T15:26:09;102683.69;;;9.31;100.00
84190;BME280;74321;53.406;8.146;2024-03-06T15:31:11;102690.66;;;9.09;100.00
84190;BME280;74321;53.406;8.146;2024-03-06T15:36:15;102694.53;;;9.23;100.00
84190;BME280;74321;53.406;8.146;2024-03-06T15:41:18;102701.88;;;9.13;100.00
84190;BME280;74321;53.406;8.146;2024-03-06T15:46:22;102688.56;;;8.97;100.00
84190;BME280;74321;53.406;8.146;2024-03-06T15:51:25;102689.78;;;9.09;100.00
84190;BME280;74321;53.406;8.146;2024-03-06T15:56:27;102702.22;;;8.98;100.00
84190;BME280;74321;53.406;8.146;2024-03-06T16:01:30;102685.47;;;8.81;100.00
84190;BME280;74321;53.406;8.146;2024-03-06T16:06:33;102697.16;;;8.74;100.00
84190;BME280;74321;53.406;8.146;2024-03-06T16:11:42;102704.22;;;8.56;100.00
84190;BME280;74321;53.406;8.146;2024-03-06T16:16:44;102698.78;;;8.47;100.00
84190;BME280;74321;53.406;8.146;2024-03-06T16:21:46;102705.34;;;8.40;100.00
84190;BME280;74321;53.406;8.146;2024-03-06T16:26:48;102714.75;;;8.41;100.00
84190;BME280;74321;53.406;8.146;2024-03-06T16:31:50;102722.53;;;8.22;100.00
84190;BME280;74321;53.406;8.146;2024-03-06T16:36:52;102733.72;;;8.25;100.00
84190;BME280;74321;53.406;8.146;2024-03-06T16:41:55;102739.41;;;8.18;100.00
84190;BME280;74321;53.406;8.146;2024-03-06T16:46:57;102726.13;;;8.03;100.00
84190;BME280;74321;53.406;8.146;2024-03-06T16:51:59;102748.25;;;7.81;100.00
84190;BME280;74321;53.406;8.146;2024-03-06T16:57:01;102748.06;;;7.54;100.00
84190;BME280;74321;53.406;8.146;2024-03-06T17:02:03;102755.41;;;7.47;100.00
84190;BME280;74321;53.406;8.146;2024-03-06T17:07:06;102753.09;;;7.32;100.00
84190;BME280;74321;53.406;8.146;2024-03-06T17:12:11;102762.75;;;7.39;100.00
84190;BME280;74321;53.406;8.146;2024-03-06T17:17:13;102770.56;;;7.44;100.00
84190;BME280;74321;53.406;8.146;2024-03-06T17:22:15;102783.97;;;7.38;100.00
84190;BME280;74321;53.406;8.146;2024-03-06T17:27:17;102766.84;;;7.36;100.00
84190;BME280;74321;53.406;8.146;2024-03-06T17:32:19;102777.28;;;7.42;100.00
84190;BME280;74321;53.406;8.146;2024-03-06T17:37:23;102774.69;;;7.40;100.00
84190;BME280;74321;53.406;8.146;2024-03-06T17:42:25;102796.22;;;7.47;100.00
84190;BME280;74321;53.406;8.146;2024-03-06T17:47:27;102794.09;;;7.37;100.00
84190;BME280;74321;53.406;8.146;2024-03-06T17:52:30;102811.84;;;7.54;100.00
84190;BME280;74321;53.406;8.146;2024-03-06T17:57:32;102782.31;;;7.19;100.00
84190;BME280;74321;53.406;8.146;2024-03-06T18:02:34;102814.91;;;7.26;100.00
84190;BME280;74321;53.406;8.146;2024-03-06T18:07:36;102814.84;;;7.25;100.00
84190;BME280;74321;53.406;8.146;2024-03-06T18:12:41;102824.94;;;7.22;100.00
84190;BME280;74321;53.406;8.146;2024-03-06T18:17:43;102822.66;;;7.09;100.00
84190;BME280;74321;53.406;8.146;2024-03-06T18:22:46;102824.22;;;7.05;100.00
84190;BME280;74321;53.406;8.146;2024-03-06T18:27:48;102831.31;;;6.93;100.00
84190;BME280;74321;53.406;8.146;2024-03-06T18:32:50;102836.72;;;6.80;100.00
84190;BME280;74321;53.406;8.146;2024-03-06T18:37:52;102832.53;;;6.62;100.00
84190;BME280;74321;53.406;8.146;2024-03-06T18:42:55;102844.69;;;6.31;100.00
84190;BME280;74321;53.406;8.146;2024-03-06T18:47:58;102848.66;;;5.90;100.00
84190;BME280;74321;53.406;8.146;2024-03-06T18:53:00;102865.28;;;5.66;100.00
84190;BME280;74321;53.406;8.146;2024-03-06T18:58:03;102860.38;;;5.52;100.00
84190;BME280;74321;53.406;8.146;2024-03-06T19:03:05;102868.50;;;5.29;100.00
84190;BME280;74321;53.406;8.146;2024-03-06T19:08:07;102868.63;;;4.98;100.00
84190;BME280;74321;53.406;8.146;2024-03-06T19:13:11;102880.03;;;4.73;100.00
84190;BME280;74321;53.406;8.146;2024-03-06T19:18:13;102884.78;;;4.67;100.00
84190;BME280;74321;53.406;8.146;2024-03-06T19:23:15;102877.59;;;4.44;100.00
84190;BME280;74321;53.406;8.146;2024-03-06T19:28:17;102895.88;;;4.38;100.00
84190;BME280;74321;53.406;8.146;2024-03-06T19:33:21;102889.19;;;4.24;100.00
84190;BME280;74321;53.406;8.146;2024-03-06T19:38:24;102902.41;;;4.04;100.00
84190;BME280;74321;53.406;8.146;2024-03-06T19:43:26;102904.09;;;4.03;100.00
84190;BME280;74321;53.406;8.146;2024-03-06T19:48:38;102890.88;;;3.94;100.00
84190;BME280;74321;53.406;8.146;2024-03-06T19:53:42;102915.81;;;3.86;100.00
84190;BME280;74321;53.406;8.146;2024-03-06T19:58:44;102904.19;;;3.75;100.00
84190;BME280;74321;53.406;8.146;2024-03-06T20:03:46;102901.13;;;3.66;100.00
84190;BME280;74321;53.406;8.146;2024-03-06T20:08:48;102916.66;;;3.43;100.00
84190;BME280;74321;53.406;8.146;2024-03-06T20:13:51;102920.56;;;3.37;100.00
84190;BME280;74321;53.406;8.146;2024-03-06T20:18:53;102863.13;;;3.08;100.00
84190;BME280;74321;53.406;8.146;2024-03-06T20:23:57;102926.16;;;3.32;100.00
84190;BME280;74321;53.406;8.146;2024-03-06T20:28:59;102925.16;;;3.15;100.00
84190;BME280;74321;53.406;8.146;2024-03-06T20:34:01;102931.25;;;3.19;100.00
84190;BME280;74321;53.406;8.146;2024-03-06T20:39:08;102945.13;;;3.10;100.00
84190;BME280;74321;53.406;8.146;2024-03-06T20:44:18;102949.91;;;3.06;100.00
84190;BME280;74321;53.406;8.146;2024-03-06T20:49:20;102934.75;;;2.93;100.00
84190;BME280;74321;53.406;8.146;2024-03-06T20:54:24;102954.69;;;3.01;100.00
84190;BME280;74321;53.406;8.146;2024-03-06T20:59:26;102964.75;;;3.00;100.00
84190;BME280;74321;53.406;8.146;2024-03-06T21:04:28;102962.00;;;2.97;100.00
84190;BME280;74321;53.406;8.146;2024-03-06T21:09:30;102974.88;;;3.00;100.00
84190;BME280;74321;53.406;8.146;2024-03-06T21:14:33;102967.84;;;2.96;100.00
84190;BME280;74321;53.406;8.146;2024-03-06T21:19:35;102972.16;;;2.84;100.00
84190;BME280;74321;53.406;8.146;2024-03-06T21:24:39;102977.13;;;2.82;100.00
84190;BME280;74321;53.406;8.146;2024-03-06T21:29:44;102977.63;;;2.76;100.00
84190;BME280;74321;53.406;8.146;2024-03-06T21:34:47;102967.41;;;2.75;100.00
84190;BME280;74321;53.406;8.146;2024-03-06T21:39:49;102967.81;;;2.68;100.00
84190;BME280;74321;53.406;8.146;2024-03-06T21:44:51;102967.31;;;2.60;100.00
84190;BME280;74321;53.406;8.146;2024-03-06T21:49:54;102979.88;;;2.59;100.00
84190;BME280;74321;53.406;8.146;2024-03-06T21:54:56;102979.28;;;2.49;100.00
84190;BME280;74321;53.406;8.146;2024-03-06T21:59:58;102972.28;;;2.32;100.00
84190;BME280;74321;53.406;8.146;2024-03-06T22:05:00;102987.47;;;2.32;100.00
84190;BME280;74321;53.406;8.146;2024-03-06T22:10:02;102991.03;;;2.22;100.00
84190;BME280;74321;53.406;8.146;2024-03-06T22:15:09;102989.19;;;2.20;100.00
84190;BME280;74321;53.406;8.146;2024-03-06T22:20:12;102987.84;;;2.25;100.00
84190;BME280;74321;53.406;8.146;2024-03-06T22:25:14;103000.22;;;2.34;100.00
84190;BME280;74321;53.406;8.146;2024-03-06T22:30:17;103007.28;;;2.39;100.00
84190;BME280;74321;53.406;8.146;2024-03-06T22:35:19;103002.13;;;2.38;100.00
84190;BME280;74321;53.406;8.146;2024-03-06T22:40:22;103003.31;;;2.43;100.00
84190;BME280;74321;53.406;8.146;2024-03-06T22:45:24;103000.88;;;2.44;100.00
84190;BME280;74321;53.406;8.146;2024-03-06T22:50:26;102992.09;;;2.39;100.00
84190;BME280;74321;53.406;8.146;2024-03-06T22:55:28;102989.31;;;2.35;100.00
84190;BME280;74321;53.406;8.146;2024-03-06T23:00:30;102985.22;;;2.37;100.00
84190;BME280;74321;53.406;8.146;2024-03-06T23:05:42;102994.75;;;2.41;100.00
84190;BME280;74321;53.406;8.146;2024-03-06T23:10:44;102985.22;;;2.37;100.00
84190;BME280;74321;53.406;8.146;2024-03-06T23:15:47;102985.31;;;2.38;100.00
84190;BME280;74321;53.406;8.146;2024-03-06T23:20:50;102999.72;;;2.52;100.00
84190;BME280;74321;53.406;8.146;2024-03-06T23:25:53;102985.78;;;2.46;100.00
84190;BME280;74321;53.406;8.146;2024-03-06T23:30:55;102985.31;;;2.51;100.00
84190;BME280;74321;53.406;8.146;2024-03-06T23:35:57;102965.16;;;2.40;100.00
84190;BME280;74321;53.406;8.146;2024-03-06T23:40:59;102992.91;;;2.51;100.00
84190;BME280;74321;53.406;8.146;2024-03-06T23:46:01;102993.97;;;2.55;100.00
84190;BME280;74321;53.406;8.146;2024-03-06T23:51:03;102995.44;;;2.51;100.00
84190;BME280;74321;53.406;8.146;2024-03-06T23:56:05;102993.97;;;2.55;100.00
